Time;durP1;ratioP1;P1;durP2;ratioP2;P2;SDS_P1;SDS_P2;PMS_P1;PMS_P2;Temp;Humidity;BMP_temperature;BMP_pressure;BME280_temperature;BME280_humidity;BME280_pressure;Samples;Min_cycle;Max_cycle;Signal;HPM_P1;HPM_P2
2022/01/01 00:00:34;;;;;;;98.85;49.90;;;10.30;99.90;;;;;;6085951;23;20022;-90
2022/01/01 00:03:55;;;;;;;104.82;50.40;;;10.60;99.90;;;;;;6127019;23;20029;-90
2022/01/01 00:07:03;;;;;;;99.07;44.33;;;10.70;99.90;;;;;;6099937;23;20025;-96
2022/01/01 00:09:29;;;;;;;91.72;45.53;;;10.20;99.90;;;;;;6222067;22;20023;-93
2022/01/01 00:11:54;;;;;;;100.20;46.50;;;10.70;99.90;;;;;;6216784;23;20016;-93
2022/01/01 00:14:20;;;;;;;93.38;43.35;;;11.00;99.90;;;;;;6216824;23;20031;-94
2022/01/01 00:16:46;;;;;;;104.00;44.75;;;10.20;99.90;;;;;;6217038;23;20048;-93
2022/01/01 00:19:11;;;;;;;112.07;48.78;;;10.50;99.90;;;;;;6216252;23;20467;-94
2022/01/01 00:21:37;;;;;;;109.30;47.22;;;10.40;99.90;;;;;;6216879;23;20018;-93
2022/01/01 00:24:03;;;;;;;92.72;42.75;;;10.50;99.90;;;;;;6217292;23;20051;-93
2022/01/01 00:26:29;;;;;;;82.35;35.42;;;10.20;99.90;;;;;;6215903;23;20517;-93
2022/01/01 00:28:54;;;;;;;84.55;32.80;;;10.90;99.90;;;;;;6217203;23;20020;-93
2022/01/01 00:31:20;;;;;;;72.72;30.85;;;10.80;99.90;;;;;;6217248;23;20026;-94
2022/01/01 00:33:45;;;;;;;80.85;29.55;;;10.20;99.90;;;;;;6217410;23;20094;-94
2022/01/01 00:36:11;;;;;;;82.15;34.08;;;10.60;99.90;;;;;;6217425;23;20016;-94
2022/01/01 00:38:37;;;;;;;85.03;34.08;;;10.20;99.90;;;;;;6216999;23;20012;-95
2022/01/01 00:41:03;;;;;;;98.25;38.55;;;10.70;99.90;;;;;;6216266;23;20107;-95
2022/01/01 00:43:28;;;;;;;93.07;38.10;;;10.40;99.90;;;;;;6216660;23;20038;-94
2022/01/01 00:45:54;;;;;;;87.50;35.67;;;11.00;99.90;;;;;;6216561;23;20016;-94
2022/01/01 00:48:20;;;;;;;95.38;36.03;;;11.00;99.90;;;;;;6216518;23;20016;-95
2022/01/01 00:50:46;;;;;;;83.78;32.50;;;10.20;99.90;;;;;;6216561;23;20020;-94
2022/01/01 00:53:11;;;;;;;76.45;32.83;;;10.60;99.90;;;;;;6216639;23;20012;-95
2022/01/01 00:55:37;;;;;;;80.88;30.63;;;10.20;99.90;;;;;;6216639;23;20023;-95
2022/01/01 00:58:03;;;;;;;86.20;29.02;;;10.20;99.90;;;;;;6216685;23;20020;-94
2022/01/01 01:00:29;;;;;;;93.85;29.38;;;10.10;99.90;;;;;;6216443;23;20024;-95
2022/01/01 01:02:55;;;;;;;79.13;29.70;;;10.30;99.90;;;;;;6216340;23;20012;-94
2022/01/01 01:05:20;;;;;;;78.90;29.80;;;10.50;99.90;;;;;;6217086;23;20020;-95
2022/01/01 01:07:46;;;;;;;89.22;30.42;;;10.00;99.90;;;;;;6215963;22;20074;-94
2022/01/01 01:10:13;;;;;;;78.47;30.38;;;10.90;99.90;;;;;;6217111;23;20099;-94
2022/01/01 01:12:43;;;;;;;80.43;30.17;;;10.50;99.90;;;;;;6216941;23;20051;-94
2022/01/01 01:15:16;;;;;;;87.55;31.55;;;10.00;99.90;;;;;;6216321;23;20020;-95
2022/01/01 01:17:43;;;;;;;;;;;10.00;99.90;;;;;;6216791;23;20016;-94
2022/01/01 01:20:10;;;;;;;77.93;30.00;;;9.90;99.90;;;;;;6216874;23;19915;-94
2022/01/01 01:22:35;;;;;;;79.43;27.02;;;9.80;99.90;;;;;;6216172;23;20448;-93
2022/01/01 01:25:01;;;;;;;90.28;29.50;;;9.80;99.90;;;;;;6216082;23;20023;-93
2022/01/01 01:27:29;;;;;;;76.85;25.98;;;10.20;99.90;;;;;;6216491;23;20452;-95
2022/01/01 01:29:57;;;;;;;72.72;26.50;;;10.50;99.90;;;;;;6215685;23;20013;-95
2022/01/01 01:32:23;;;;;;;78.03;28.35;;;9.70;99.90;;;;;;6216537;23;20098;-94
2022/01/01 01:34:49;;;;;;;87.35;30.30;;;10.10;99.90;;;;;;6216226;23;20055;-95
2022/01/01 01:37:14;;;;;;;73.32;28.08;;;10.10;99.90;;;;;;6216094;23;20063;-94
2022/01/01 01:39:40;;;;;;;79.70;27.40;;;9.60;99.90;;;;;;6217059;23;20016;-94
2022/01/01 01:42:06;;;;;;;73.75;25.90;;;10.10;99.90;;;;;;6221668;23;20020;-93
2022/01/01 01:44:35;;;;;;;78.97;26.02;;;9.60;99.90;;;;;;6218338;23;20022;-94
2022/01/01 01:47:03;;;;;;;85.25;26.85;;;9.80;99.90;;;;;;6218083;23;20016;-94
2022/01/01 01:49:30;;;;;;;79.68;26.23;;;9.60;99.90;;;;;;6218030;23;20559;-95
2022/01/01 01:51:56;;;;;;;85.22;28.08;;;9.80;99.90;;;;;;6217971;23;20467;-95
2022/01/01 01:54:22;;;;;;;78.15;26.45;;;9.90;99.90;;;;;;6218765;23;20046;-94
2022/01/01 01:56:48;;;;;;;80.45;27.40;;;9.90;99.90;;;;;;6218008;23;20020;-93
2022/01/01 01:59:15;;;;;;;91.65;27.40;;;10.20;99.90;;;;;;6218343;23;20039;-94
2022/01/01 02:01:41;;;;;;;91.60;28.73;;;9.60;99.90;;;;;;6218211;23;20154;-94
2022/01/01 02:04:07;;;;;;;82.80;29.10;;;9.60;99.90;;;;;;6217667;23;20020;-94
2022/01/01 02:06:34;;;;;;;87.90;29.05;;;9.80;99.90;;;;;;6218526;23;20102;-94
2022/01/01 02:09:00;;;;;;;86.88;30.30;;;10.20;99.90;;;;;;6222874;22;20022;-94
2022/01/01 02:11:27;;;;;;;100.10;30.67;;;9.70;99.90;;;;;;6222909;22;20047;-94
2022/01/01 02:18:48;;;;;;;88.70;32.45;;;9.80;99.90;;;;;;6248165;22;20019;-95
2022/01/01 02:21:14;;;;;;;111.63;34.05;;;10.50;99.90;;;;;;6223141;22;20047;-94
2022/01/01 02:23:43;;;;;;;104.60;37.67;;;9.90;99.90;;;;;;6223155;22;20047;-94
2022/01/01 02:26:12;;;;;;;112.25;36.63;;;10.10;99.90;;;;;;6222614;22;20030;-94
2022/01/01 02:28:44;;;;;;;118.68;39.97;;;9.90;99.90;;;;;;6223178;22;20023;-93
2022/01/01 02:31:10;;;;;;;122.32;40.83;;;10.50;99.90;;;;;;6224757;22;20016;-94
2022/01/01 02:33:37;;;;;;;118.75;42.70;;;10.70;99.90;;;;;;6222370;22;20064;-93
2022/01/01 02:36:04;;;;;;;122.78;44.33;;;10.80;99.90;;;;;;6222454;22;20080;-93
2022/01/01 02:38:32;;;;;;;138.15;47.70;;;10.10;99.90;;;;;;6223059;22;20016;-93
2022/01/01 02:40:58;;;;;;;142.60;49.28;;;10.10;99.90;;;;;;6222216;22;20062;-95
2022/01/01 02:43:25;;;;;;;145.07;48.45;;;10.10;99.90;;;;;;6223024;22;20016;-94
2022/01/01 02:45:50;;;;;;;137.55;48.05;;;10.40;99.90;;;;;;6222407;22;20102;-94
2022/01/01 02:48:17;;;;;;;133.65;47.78;;;10.30;99.90;;;;;;6222336;22;20051;-94
2022/01/01 02:50:43;;;;;;;133.23;48.13;;;10.90;99.90;;;;;;6223139;22;20051;-93
2022/01/01 02:53:13;;;;;;;144.05;47.80;;;10.70;99.90;;;;;;6222489;22;20008;-94
2022/01/01 02:55:41;;;;;;;119.07;42.85;;;10.20;99.90;;;;;;6222395;22;20016;-92
2022/01/01 02:58:08;;;;;;;110.28;41.78;;;10.60;99.90;;;;;;6222582;22;20016;-93
2022/01/01 03:00:34;;;;;;;116.90;40.97;;;10.50;99.90;;;;;;6222144;22;20018;-94
2022/01/01 03:02:59;;;;;;;119.40;39.97;;;10.30;99.90;;;;;;6222768;22;20090;-94
2022/01/01 03:05:25;;;;;;;124.95;38.35;;;10.60;99.90;;;;;;6222540;22;20008;-93
2022/01/01 03:07:51;;;;;;;123.47;37.78;;;10.20;99.90;;;;;;6220412;22;20080;-94
2022/01/01 03:10:17;;;;;;;100.93;37.75;;;10.90;99.90;;;;;;6217487;23;20349;-94
2022/01/01 03:12:42;;;;;;;106.78;37.60;;;10.80;99.90;;;;;;6219489;23;20021;-94
2022/01/01 03:15:08;;;;;;;116.50;37.30;;;10.90;99.90;;;;;;6219757;23;20020;-95
2022/01/01 03:17:34;;;;;;;105.53;35.13;;;10.30;99.90;;;;;;6217267;23;20024;-94
2022/01/01 03:19:59;;;;;;;105.22;36.78;;;11.00;99.90;;;;;;6217788;23;20020;-94
2022/01/01 03:22:25;;;;;;;112.05;36.03;;;10.30;99.90;;;;;;6216786;23;20060;-93
2022/01/01 03:24:51;;;;;;;111.93;36.28;;;10.30;99.90;;;;;;6217032;23;20024;-93
2022/01/01 03:27:16;;;;;;;119.90;38.45;;;10.70;99.90;;;;;;6220955;23;20051;-93
2022/01/01 03:29:42;;;;;;;111.45;39.15;;;10.90;99.90;;;;;;6219874;23;20103;-94
2022/01/01 03:32:08;;;;;;;111.35;36.55;;;10.90;99.90;;;;;;6219217;23;20016;-93
2022/01/01 03:34:34;;;;;;;121.07;39.33;;;11.00;99.90;;;;;;6216981;23;20012;-93
2022/01/01 03:36:59;;;;;;;115.90;38.50;;;10.20;99.90;;;;;;6217327;23;20095;-93
2022/01/01 03:39:27;;;;;;;114.20;39.63;;;10.60;99.90;;;;;;6217400;23;20020;-93
2022/01/01 03:41:53;;;;;;;114.28;40.22;;;10.90;99.90;;;;;;6218564;23;20016;-94
2022/01/01 03:44:19;;;;;;;109.65;38.33;;;10.40;99.90;;;;;;6219187;23;20447;-94
2022/01/01 03:46:46;;;;;;;120.78;40.33;;;10.90;99.90;;;;;;6219517;23;20016;-93
2022/01/01 03:49:12;;;;;;;113.05;40.88;;;10.30;99.90;;;;;;6218172;23;20043;-93
2022/01/01 03:51:38;;;;;;;110.38;40.38;;;11.00;99.90;;;;;;6217521;23;20031;-94
2022/01/01 03:54:03;;;;;;;118.53;39.67;;;11.00;99.90;;;;;;6218869;23;20504;-93
2022/01/01 03:56:29;;;;;;;115.50;38.75;;;10.30;99.90;;;;;;6217083;23;20055;-94
2022/01/01 03:58:55;;;;;;;127.20;39.17;;;10.70;99.90;;;;;;6216730;23;20433;-95
2022/01/01 04:01:20;;;;;;;105.90;37.10;;;11.00;99.90;;;;;;6217464;23;20031;-94
2022/01/01 04:03:46;;;;;;;125.35;36.42;;;10.20;99.90;;;;;;6218572;23;20095;-94
2022/01/01 04:06:12;;;;;;;102.57;34.80;;;10.20;99.90;;;;;;6216617;23;20020;-94
2022/01/01 04:08:37;;;;;;;111.00;36.63;;;10.60;99.90;;;;;;6217029;23;20345;-94
2022/01/01 04:11:03;;;;;;;108.38;33.20;;;10.70;99.90;;;;;;6216651;23;20019;-94
2022/01/01 04:13:29;;;;;;;102.65;33.70;;;10.80;99.90;;;;;;6216956;23;20027;-94
2022/01/01 04:15:55;;;;;;;104.50;32.28;;;10.80;99.90;;;;;;6216919;23;20344;-93
2022/01/01 04:18:37;;;;;;;96.30;31.42;;;11.00;99.90;;;;;;6216093;23;20014;-94
2022/01/01 04:21:05;;;;;;;97.00;30.92;;;10.90;99.90;;;;;;6218215;23;20027;-93
2022/01/01 04:23:30;;;;;;;97.22;32.53;;;10.10;99.90;;;;;;6219452;23;20012;-94
2022/01/01 04:25:56;;;;;;;95.25;32.10;;;10.90;99.90;;;;;;6216433;23;20070;-94
2022/01/01 04:28:21;;;;;;;108.45;33.42;;;10.80;99.90;;;;;;6217067;23;20020;-94
2022/01/01 04:30:47;;;;;;;105.55;34.45;;;10.90;99.90;;;;;;6216803;23;20012;-94
2022/01/01 04:33:13;;;;;;;105.63;33.38;;;10.80;99.90;;;;;;6216116;23;20027;-93
2022/01/01 04:35:39;;;;;;;93.75;33.03;;;10.90;99.90;;;;;;6216765;23;20123;-94
2022/01/01 04:38:08;;;;;;;102.30;34.70;;;10.30;99.90;;;;;;6216779;23;20024;-94
2022/01/01 04:40:34;;;;;;;103.80;34.80;;;10.90;99.90;;;;;;6218451;23;20031;-93
2022/01/01 04:43:00;;;;;;;110.40;34.85;;;10.20;99.90;;;;;;6216437;23;20020;-94
2022/01/01 04:45:26;;;;;;;99.30;36.05;;;10.20;99.90;;;;;;6216296;23;20048;-94
2022/01/01 04:47:51;;;;;;;109.97;36.67;;;10.20;99.90;;;;;;6216857;23;20023;-94
2022/01/01 04:50:17;;;;;;;109.45;39.22;;;10.90;99.90;;;;;;6216428;23;20034;-93
2022/01/01 04:52:44;;;;;;;102.50;38.00;;;10.40;99.90;;;;;;6216180;23;20455;-94
2022/01/01 04:55:10;;;;;;;106.63;38.67;;;10.60;99.90;;;;;;6216574;23;20016;-93
2022/01/01 04:57:36;;;;;;;112.47;38.15;;;10.20;99.90;;;;;;6216776;23;20012;-93
2022/01/01 05:00:02;;;;;;;101.57;38.65;;;11.00;99.90;;;;;;6216344;23;20016;-93
2022/01/01 05:02:28;;;;;;;109.55;37.70;;;10.20;99.90;;;;;;6216469;23;20012;-94
2022/01/01 05:04:59;;;;;;;106.95;39.08;;;10.20;99.90;;;;;;6217142;23;20453;-93
2022/01/01 05:07:25;;;;;;;106.45;39.38;;;10.50;99.90;;;;;;6215175;23;20048;-93
2022/01/01 05:09:51;;;;;;;110.22;42.78;;;10.90;99.90;;;;;;6216275;23;20440;-94
2022/01/01 05:12:16;;;;;;;112.32;42.03;;;9.70;99.90;;;;;;6215723;23;20027;-94
2022/01/01 05:14:42;;;;;;;119.75;46.88;;;9.50;99.90;;;;;;6221716;23;20017;-94
2022/01/01 05:17:08;;;;;;;120.30;48.40;;;9.50;99.90;;;;;;6216687;23;20441;-93
2022/01/01 05:19:34;;;;;;;130.55;50.92;;;10.80;99.90;;;;;;6216099;23;20020;-94
2022/01/01 05:21:59;;;;;;;132.15;55.25;;;11.00;99.90;;;;;;6216453;23;20027;-94
2022/01/01 05:24:25;;;;;;;132.35;55.28;;;10.40;99.90;;;;;;6216580;23;20024;-94
2022/01/01 05:26:50;;;;;;;134.40;57.72;;;10.70;99.90;;;;;;6218451;23;20062;-93
2022/01/01 05:29:16;;;;;;;140.90;59.92;;;10.60;99.90;;;;;;6216258;23;20078;-93
2022/01/01 05:31:42;;;;;;;137.38;59.78;;;10.50;99.90;;;;;;6215917;23;20456;-94
2022/01/01 05:34:08;;;;;;;136.00;60.40;;;10.60;99.90;;;;;;6216610;23;20031;-94
2022/01/01 05:36:34;;;;;;;147.90;63.40;;;10.20;99.90;;;;;;6215935;23;20016;-94
2022/01/01 05:38:59;;;;;;;138.65;63.58;;;10.20;99.90;;;;;;6216475;23;20103;-93
2022/01/01 05:41:25;;;;;;;147.82;66.70;;;10.70;99.90;;;;;;6216949;23;20048;-93
2022/01/01 05:43:51;;;;;;;146.45;65.22;;;10.90;99.90;;;;;;6215827;23;20012;-94
2022/01/01 05:46:16;;;;;;;158.88;66.10;;;10.60;99.90;;;;;;6217257;23;20019;-94
2022/01/01 05:48:42;;;;;;;157.27;65.22;;;10.80;99.90;;;;;;6216477;23;20017;-93
2022/01/01 05:51:08;;;;;;;153.85;63.47;;;11.00;99.90;;;;;;6216413;23;20016;-93
2022/01/01 05:53:34;;;;;;;150.07;62.78;;;10.40;99.90;;;;;;6218278;23;20451;-93
2022/01/01 05:56:00;;;;;;;145.30;59.08;;;10.60;99.90;;;;;;6217588;23;20055;-93
2022/01/01 05:58:26;;;;;;;148.43;58.50;;;10.40;99.90;;;;;;6216591;23;20337;-93
2022/01/01 06:00:51;;;;;;;133.77;54.60;;;9.70;99.90;;;;;;6215861;23;20023;-93
2022/01/01 06:03:18;;;;;;;145.05;58.70;;;10.90;99.90;;;;;;6215658;23;20017;-93
2022/01/01 06:05:44;;;;;;;136.70;55.05;;;11.00;99.90;;;;;;6216188;23;20020;-93
2022/01/01 06:08:10;;;;;;;145.60;58.78;;;10.70;99.90;;;;;;6216350;22;20023;-93
2022/01/01 06:10:36;;;;;;;136.63;50.53;;;10.40;99.90;;;;;;6215998;23;20103;-93
2022/01/01 06:13:06;;;;;;;133.25;50.78;;;10.70;99.90;;;;;;6216489;23;20024;-93
2022/01/01 06:15:32;;;;;;;136.07;51.03;;;10.30;99.90;;;;;;6216927;23;20027;-93
2022/01/01 06:17:57;;;;;;;132.25;45.92;;;10.70;99.90;;;;;;6216062;23;20008;-92
2022/01/01 06:20:23;;;;;;;121.50;48.30;;;10.70;99.90;;;;;;6215986;23;20016;-93
2022/01/01 06:22:49;;;;;;;139.57;48.75;;;10.20;99.90;;;;;;6216268;23;20016;-94
2022/01/01 06:25:15;;;;;;;111.03;43.15;;;10.50;99.90;;;;;;6215542;23;20059;-94
2022/01/01 06:27:41;;;;;;;127.18;40.58;;;10.40;99.90;;;;;;6216163;23;20024;-94
2022/01/01 06:30:07;;;;;;;140.95;39.85;;;10.20;99.90;;;;;;6217362;23;20016;-93
2022/01/01 06:32:33;;;;;;;129.57;38.97;;;10.20;99.90;;;;;;6217200;23;20023;-93
2022/01/01 06:34:59;;;;;;;116.95;37.97;;;10.20;99.90;;;;;;6217715;23;20016;-93
2022/01/01 06:37:25;;;;;;;123.47;36.67;;;10.40;99.90;;;;;;6217725;23;20487;-93
2022/01/01 06:39:51;;;;;;;125.90;36.80;;;10.60;99.90;;;;;;6217762;23;20326;-93
2022/01/01 06:42:17;;;;;;;134.45;37.28;;;10.50;99.90;;;;;;6217745;23;20031;-93
2022/01/01 06:44:43;;;;;;;138.18;38.92;;;10.40;99.90;;;;;;6218249;23;20008;-93
2022/01/01 06:47:09;;;;;;;121.57;37.45;;;10.20;99.90;;;;;;6217296;23;20027;-93
2022/01/01 06:49:35;;;;;;;136.18;37.78;;;10.20;99.90;;;;;;6217261;23;20016;-93
2022/01/01 06:52:01;;;;;;;127.38;36.65;;;11.00;99.90;;;;;;6217173;23;20027;-93
2022/01/01 06:54:27;;;;;;;132.77;34.15;;;10.20;99.90;;;;;;6217519;23;20441;-92
2022/01/01 06:56:53;;;;;;;130.48;35.47;;;10.60;99.90;;;;;;6217107;23;20105;-93
2022/01/01 06:59:18;;;;;;;112.72;33.58;;;10.70;99.90;;;;;;6223839;23;20027;-94
2022/01/01 07:01:44;;;;;;;134.43;36.92;;;11.00;99.90;;;;;;6219334;23;20072;-94
2022/01/01 07:04:09;;;;;;;118.10;33.83;;;10.30;99.90;;;;;;6218082;23;20016;-94
2022/01/01 07:06:35;;;;;;;101.05;30.08;;;10.50;99.90;;;;;;6217160;23;20034;-93
2022/01/01 07:09:02;;;;;;;92.88;30.35;;;10.30;99.90;;;;;;6217111;23;20022;-94
2022/01/01 07:11:28;;;;;;;119.03;30.65;;;10.60;99.90;;;;;;6217601;23;20103;-94
2022/01/01 07:13:53;;;;;;;105.55;30.55;;;10.30;99.90;;;;;;6216665;23;20047;-94
2022/01/01 07:16:20;;;;;;;106.28;29.90;;;10.30;99.90;;;;;;6217606;23;20016;-95
2022/01/01 07:18:46;;;;;;;111.78;31.58;;;10.60;99.90;;;;;;6216848;23;20096;-93
2022/01/01 07:21:12;;;;;;;100.90;28.80;;;10.60;99.90;;;;;;6219393;23;20449;-94
2022/01/01 07:23:38;;;;;;;111.15;28.77;;;10.70;99.90;;;;;;6217716;23;20016;-93
2022/01/01 07:26:04;;;;;;;90.68;29.30;;;10.90;99.90;;;;;;6217146;23;20042;-93
2022/01/01 07:28:29;;;;;;;106.32;29.52;;;11.00;99.90;;;;;;6218536;23;20012;-93
2022/01/01 07:30:55;;;;;;;94.05;28.70;;;10.50;99.90;;;;;;6217939;23;20456;-93
2022/01/01 07:33:21;;;;;;;107.45;28.80;;;10.90;99.90;;;;;;6217043;23;20024;-93
2022/01/01 07:35:47;;;;;;;94.00;27.73;;;10.60;99.90;;;;;;6217520;23;20445;-94
2022/01/01 07:38:12;;;;;;;109.65;30.75;;;11.20;99.90;;;;;;6217161;23;20016;-93
2022/01/01 07:40:39;;;;;;;99.15;29.83;;;10.70;99.90;;;;;;6218288;23;20019;-94
2022/01/01 07:43:11;;;;;;;100.22;31.42;;;10.80;99.90;;;;;;6217618;23;20639;-94
2022/01/01 07:45:36;;;;;;;109.47;31.55;;;10.60;99.90;;;;;;6217356;23;20051;-93
2022/01/01 07:48:03;;;;;;;91.75;30.42;;;10.50;99.90;;;;;;6218738;23;20028;-93
2022/01/01 07:50:29;;;;;;;105.60;35.40;;;10.50;99.90;;;;;;6216590;23;20020;-93
2022/01/01 07:52:55;;;;;;;116.18;34.92;;;11.10;99.90;;;;;;6217466;23;20064;-93
2022/01/01 07:55:20;;;;;;;117.18;37.10;;;10.50;99.90;;;;;;6216123;23;20085;-94
2022/01/01 07:57:46;;;;;;;126.20;44.15;;;10.80;99.90;;;;;;6217093;23;20762;-93
2022/01/01 08:00:12;;;;;;;126.90;46.50;;;11.20;99.90;;;;;;6216910;23;20456;-93
2022/01/01 08:02:39;;;;;;;133.73;47.40;;;10.60;99.90;;;;;;6216706;23;20056;-93
2022/01/01 08:05:06;;;;;;;137.48;52.80;;;10.60;99.90;;;;;;6221331;23;20039;-94
2022/01/01 08:07:31;;;;;;;152.15;60.55;;;10.60;99.90;;;;;;6221113;22;20016;-93
2022/01/01 08:09:57;;;;;;;147.35;54.80;;;10.90;99.90;;;;;;6217845;23;20067;-92
2022/01/01 08:12:23;;;;;;;148.27;56.15;;;10.60;99.90;;;;;;6216741;23;20487;-93
2022/01/01 08:14:48;;;;;;;141.63;49.83;;;10.70;99.90;;;;;;6216862;23;20057;-93
2022/01/01 08:17:14;;;;;;;159.80;59.65;;;10.70;99.90;;;;;;6216730;23;20523;-92
2022/01/01 08:19:40;;;;;;;140.43;56.10;;;10.70;99.90;;;;;;6218651;23;20012;-93
2022/01/01 08:22:05;;;;;;;136.85;53.63;;;11.50;99.90;;;;;;6219661;23;20020;-92
2022/01/01 08:24:31;;;;;;;130.02;49.95;;;11.20;99.90;;;;;;6217753;23;20020;-93
2022/01/01 08:26:57;;;;;;;126.35;49.58;;;10.80;99.90;;;;;;6219260;23;20078;-94
2022/01/01 08:29:23;;;;;;;131.65;49.38;;;10.70;99.90;;;;;;6218876;23;20519;-93
2022/01/01 08:31:51;;;;;;;148.35;54.65;;;10.90;99.90;;;;;;6216132;23;20051;-93
2022/01/01 08:34:18;;;;;;;127.75;48.50;;;11.60;99.90;;;;;;6216799;23;20063;-93
2022/01/01 08:36:44;;;;;;;121.63;42.67;;;10.90;99.90;;;;;;6216615;23;20027;-93
2022/01/01 08:39:09;;;;;;;99.72;36.63;;;10.90;99.90;;;;;;6216649;23;20012;-92
2022/01/01 08:41:35;;;;;;;101.85;34.38;;;10.90;99.90;;;;;;6216188;23;20020;-94
2022/01/01 08:44:01;;;;;;;100.40;34.33;;;10.90;99.90;;;;;;6218514;23;20020;-92
2022/01/01 08:46:26;;;;;;;104.60;33.63;;;11.20;99.90;;;;;;6219022;23;20031;-94
2022/01/01 08:48:52;;;;;;;105.13;32.85;;;11.00;99.90;;;;;;6215992;23;20012;-94
2022/01/01 08:51:19;;;;;;;115.13;35.50;;;11.00;99.90;;;;;;6217005;23;20027;-93
2022/01/01 08:53:46;;;;;;;100.22;33.35;;;11.00;99.90;;;;;;6215723;23;20012;-93
2022/01/01 08:56:13;;;;;;;100.50;34.47;;;11.00;99.90;;;;;;6217320;23;20100;-94
2022/01/01 08:58:39;;;;;;;101.53;34.33;;;11.60;99.90;;;;;;6216195;23;20510;-94
2022/01/01 09:01:06;;;;;;;107.30;35.08;;;11.10;99.90;;;;;;6216436;23;20020;-93
2022/01/01 09:03:34;;;;;;;96.25;33.42;;;11.20;99.90;;;;;;6216576;23;20435;-94
2022/01/01 09:06:01;;;;;;;111.00;35.58;;;11.60;99.90;;;;;;6214642;23;20024;-94
2022/01/01 09:08:27;;;;;;;92.13;33.40;;;11.20;99.90;;;;;;6217557;22;20023;-94
2022/01/01 09:10:53;;;;;;;104.45;34.17;;;11.30;99.90;;;;;;6216176;23;20020;-94
2022/01/01 09:13:18;;;;;;;94.25;34.55;;;11.30;99.90;;;;;;6216176;23;20038;-93
2022/01/01 09:15:44;;;;;;;79.35;31.63;;;11.30;99.90;;;;;;6212667;23;20008;-95
2022/01/01 09:18:10;;;;;;;89.13;32.58;;;11.40;99.90;;;;;;6214030;23;20020;-94
2022/01/01 09:20:35;;;;;;;86.57;31.38;;;12.10;99.90;;;;;;6213139;23;20020;-93
2022/01/01 09:23:04;;;;;;;75.28;31.48;;;11.40;99.90;;;;;;6213836;23;20027;-95
2022/01/01 09:25:33;;;;;;;84.30;33.22;;;11.50;99.90;;;;;;6213965;23;20078;-94
2022/01/01 09:27:59;;;;;;;91.13;32.30;;;11.50;99.90;;;;;;6213422;23;20059;-94
2022/01/01 09:31:20;;;;;;;73.97;32.88;;;11.70;99.90;;;;;;6216567;23;20449;-96
2022/01/01 09:36:57;;;;;;;70.63;29.38;;;11.60;99.90;;;;;;6236600;22;20054;-91
2022/01/01 09:39:24;;;;;;;73.88;30.48;;;11.80;99.90;;;;;;6142567;23;20024;-83
2022/01/01 09:41:53;;;;;;;68.80;28.80;;;12.40;99.90;;;;;;6209611;23;20016;-92
2022/01/01 09:45:43;;;;;;;62.92;29.75;;;11.70;99.90;;;;;;6232788;23;20023;-91
2022/01/01 09:48:18;;;;;;;64.00;28.92;;;11.70;99.90;;;;;;5986537;23;20068;-90
2022/01/01 09:51:22;;;;;;;;;;;;;;;;;;;;;
2022/01/01 09:57:37;;;;;;;60.13;26.02;;;11.50;99.90;;;;;;6233714;23;20080;-94
2022/01/01 10:19:18;;;;;;;46.42;22.45;;;12.00;99.90;;;;;;6058848;23;20050;-91
2022/01/01 10:23:32;;;;;;;42.08;20.17;;;12.00;99.90;;;;;;6085428;23;20026;-95
2022/01/01 10:29:34;;;;;;;;;;;;;;;;;;;;;
2022/01/01 10:36:18;;;;;;;34.90;18.98;;;12.20;99.90;;;;;;6145111;23;20038;-96
2022/01/01 10:42:51;;;;;;;37.78;18.70;;;12.20;99.90;;;;;;6094310;23;20022;-96
2022/01/01 10:46:10;;;;;;;;;;;;;;;;;;;;;
2022/01/01 10:49:35;;;;;;;41.30;17.05;;;12.10;99.90;;;;;;6156227;23;20023;-95
2022/01/01 10:52:43;;;;;;;38.40;16.90;;;12.30;99.90;;;;;;6215831;23;20027;-96
2022/01/01 10:56:22;;;;;;;30.30;16.10;;;12.30;99.90;;;;;;6189379;23;20016;-95
2022/01/01 10:59:32;;;;;;;39.25;16.13;;;12.20;99.90;;;;;;6134224;23;20030;-96
2022/01/01 11:02:00;;;;;;;33.40;15.50;;;12.30;99.90;;;;;;6068203;23;20840;-95
2022/01/01 11:04:26;;;;;;;42.70;15.68;;;12.30;99.90;;;;;;6068575;23;20022;-95
2022/01/01 11:06:52;;;;;;;31.70;15.85;;;12.30;99.90;;;;;;6139715;23;20012;-96
2022/01/01 11:09:19;;;;;;;29.83;15.48;;;12.30;99.90;;;;;;6188705;23;20499;-93
2022/01/01 11:11:45;;;;;;;34.45;15.77;;;13.10;99.90;;;;;;6187142;23;20016;-94
2022/01/01 11:14:12;;;;;;;32.35;14.80;;;12.00;99.90;;;;;;6188977;23;20139;-94
2022/01/01 11:16:38;;;;;;;38.50;15.38;;;12.30;99.90;;;;;;6186577;23;20019;-94
2022/01/01 11:20:02;;;;;;;30.85;14.65;;;12.30;99.90;;;;;;6187047;23;20414;-95
2022/01/01 11:22:32;;;;;;;27.20;13.35;;;12.30;99.90;;;;;;6149270;23;20039;-96
2022/01/01 11:25:02;;;;;;;35.22;14.40;;;12.30;99.90;;;;;;6199020;23;20035;-96
2022/01/01 11:27:32;;;;;;;37.13;15.43;;;12.30;99.90;;;;;;6187436;23;20047;-95
2022/01/01 11:30:02;;;;;;;34.55;14.65;;;12.30;99.90;;;;;;6185953;23;20043;-95
2022/01/01 11:32:51;;;;;;;30.38;13.32;;;12.30;99.90;;;;;;6188003;23;20023;-96
2022/01/01 11:35:52;;;;;;;31.20;14.32;;;12.30;99.90;;;;;;6187330;23;20337;-96
2022/01/01 11:38:47;;;;;;;27.67;13.75;;;12.30;99.90;;;;;;6201806;23;20107;-96
2022/01/01 11:41:15;;;;;;;28.38;13.23;;;12.30;99.90;;;;;;6185980;23;20019;-95
2022/01/01 11:43:53;;;;;;;28.77;12.68;;;12.40;99.90;;;;;;6187695;23;20044;-96
2022/01/01 11:46:59;;;;;;;31.52;12.20;;;12.40;99.90;;;;;;6191829;23;20416;-94
2022/01/01 11:49:29;;;;;;;23.58;11.30;;;12.40;99.90;;;;;;6186907;23;20024;-92
2022/01/01 11:51:56;;;;;;;27.23;12.73;;;12.40;99.90;;;;;;6187051;23;20019;-96
2022/01/01 11:54:25;;;;;;;26.73;11.68;;;12.30;99.90;;;;;;6194607;23;20045;-94
2022/01/01 11:57:06;;;;;;;;;;;;;;;;;;;;;
2022/01/01 12:00:51;;;;;;;22.02;10.00;;;12.40;99.90;;;;;;6248647;23;20043;-95
2022/01/01 12:03:26;;;;;;;106.63;16.45;;;12.40;99.90;;;;;;6087580;23;20024;-96
2022/01/01 12:06:07;;;;;;;24.75;9.88;;;12.50;99.90;;;;;;6192572;23;20024;-96
2022/01/01 12:08:48;;;;;;;25.85;9.70;;;12.20;99.90;;;;;;6186152;23;20179;-94
2022/01/01 12:11:49;;;;;;;23.50;9.23;;;12.50;99.90;;;;;;6192618;23;20016;-92
2022/01/01 12:17:53;;;;;;;24.63;8.55;;;12.50;99.90;;;;;;6132595;23;20032;-95
2022/01/01 12:21:07;;;;;;;;;;;;;;;;;;;;;
2022/01/01 12:23:37;;;;;;;20.77;8.93;;;12.50;99.90;;;;;;6216224;23;20325;-95
2022/01/01 12:26:20;;;;;;;24.73;8.65;;;12.50;99.90;;;;;;6190753;23;20094;-92
2022/01/01 12:32:58;;;;;;;20.00;7.00;;;12.50;99.90;;;;;;6175137;23;20055;-89
2022/01/01 12:35:44;;;;;;;15.73;7.15;;;12.60;99.90;;;;;;6187708;23;20476;-91
2022/01/01 12:39:13;;;;;;;22.02;6.90;;;12.40;99.90;;;;;;6212621;23;20016;-90
2022/01/01 12:41:30;;;;;;;19.08;7.07;;;12.30;99.90;;;;;;6224270;23;20024;-91
2022/01/01 12:44:03;;;;;;;21.27;7.18;;;12.40;99.90;;;;;;6213539;23;20031;-91
2022/01/01 12:50:48;;;;;;;19.92;6.40;;;12.30;99.90;;;;;;6121370;23;20021;-91
2022/01/01 12:53:52;;;;;;;17.13;6.25;;;12.40;99.90;;;;;;6034528;23;20014;-91
2022/01/01 12:57:31;;;;;;;18.50;6.50;;;12.70;99.90;;;;;;6132798;23;20024;-90
2022/01/01 12:59:54;;;;;;;18.85;6.57;;;12.40;99.90;;;;;;6206466;23;20382;-90
2022/01/01 13:02:44;;;;;;;19.83;5.68;;;12.40;99.90;;;;;;6213268;23;20751;-89
2022/01/01 13:05:10;;;;;;;15.60;6.22;;;12.20;99.90;;;;;;6213660;23;20012;-88
2022/01/01 13:07:40;;;;;;;21.23;6.25;;;12.90;99.90;;;;;;6214376;23;20070;-89
2022/01/01 13:10:06;;;;;;;16.15;7.20;;;12.30;99.90;;;;;;6213365;23;20012;-89
2022/01/01 13:12:34;;;;;;;19.73;5.93;;;12.40;99.90;;;;;;6212491;23;20107;-89
2022/01/01 13:14:59;;;;;;;20.63;6.22;;;12.30;99.90;;;;;;6212433;23;20351;-89
2022/01/01 13:17:25;;;;;;;17.30;6.30;;;12.30;99.90;;;;;;6213480;23;20432;-90
2022/01/01 13:19:53;;;;;;;15.75;6.22;;;12.30;99.90;;;;;;6212267;23;20020;-89
2022/01/01 13:22:28;;;;;;;19.02;7.00;;;12.60;99.90;;;;;;6213606;23;20024;-89
2022/01/01 13:24:56;;;;;;;19.92;6.28;;;12.40;99.90;;;;;;6213196;23;20372;-89
2022/01/01 13:27:27;;;;;;;15.75;6.18;;;12.30;99.90;;;;;;6212620;23;20020;-91
2022/01/01 13:29:54;;;;;;;16.75;6.32;;;12.40;99.90;;;;;;6214173;23;20012;-90
2022/01/01 13:32:19;;;;;;;15.05;5.82;;;12.40;99.90;;;;;;6215175;23;20016;-89
2022/01/01 13:34:52;;;;;;;19.42;6.22;;;12.40;99.90;;;;;;6237053;23;20444;-90
2022/01/01 13:37:23;;;;;;;18.20;6.50;;;12.30;99.90;;;;;;6214024;23;20162;-90
2022/01/01 13:39:49;;;;;;;19.67;6.15;;;12.40;99.90;;;;;;6215043;23;20024;-90
2022/01/01 13:42:18;;;;;;;17.63;6.40;;;12.30;99.90;;;;;;6215889;23;20042;-91